Time;durP1;ratioP1;P1;durP2;ratioP2;P2;SDS_P1;SDS_P2;PMS_P1;PMS_P2;Temp;Humidity;BMP_temperature;BMP_pressure;BME280_temperature;BME280_humidity;BME280_pressure;Samples;Min_cycle;Max_cycle;Signal;HPM_P1;HPM_P2
2021/07/03 00:01:22;;;;;;;;;;;24.10;41.60;;;;;;8260530;28;19932;-48
2021/07/03 00:05:23;;;;;;;;;;;24.10;41.70;;;;;;8261271;28;19917;-48
2021/07/03 00:09:23;;;;;;;;;;;24.10;41.70;;;;;;8260944;28;20004;-48
2021/07/03 00:13:24;;;;;;;;;;;24.10;41.70;;;;;;8264938;28;20286;-48
2021/07/03 00:17:24;;;;;;;;;;;24.10;41.70;;;;;;8265081;28;19997;-47
2021/07/03 00:21:25;;;;;;;;;;;24.10;41.70;;;;;;8266747;28;19921;-48
2021/07/03 00:25:25;;;;;;;;;;;24.10;41.70;;;;;;8266018;28;19914;-48
2021/07/03 00:29:26;;;;;;;;;;;24.10;41.70;;;;;;8270997;28;19920;-48
2021/07/03 00:33:26;;;;;;;;;;;24.10;41.70;;;;;;8266538;28;20376;-47
2021/07/03 00:37:27;;;;;;;;;;;24.10;41.70;;;;;;8266078;28;20295;-47
2021/07/03 00:41:28;;;;;;;;;;;24.10;41.80;;;;;;8266348;28;20330;-47
2021/07/03 00:45:28;;;;;;;;;;;24.10;41.80;;;;;;8269356;28;19920;-49
2021/07/03 00:49:29;;;;;;;;;;;24.00;41.70;;;;;;8267305;28;19913;-48
2021/07/03 00:53:30;;;;;;;;;;;24.00;41.80;;;;;;8266000;28;19914;-48
2021/07/03 00:57:31;;;;;;;;;;;24.00;41.70;;;;;;8265839;28;19913;-48
2021/07/03 01:01:31;;;;;;;;;;;24.00;41.80;;;;;;8265078;28;20048;-47
2021/07/03 01:05:32;;;;;;;;;;;24.00;41.80;;;;;;8270591;28;19922;-47
2021/07/03 01:09:32;;;;;;;;;;;24.00;41.80;;;;;;8265657;28;19936;-48
2021/07/03 01:13:33;;;;;;;;;;;24.00;41.80;;;;;;8264998;28;20349;-48
2021/07/03 01:17:33;;;;;;;;;;;24.00;41.80;;;;;;8265481;28;20395;-47
2021/07/03 01:21:34;;;;;;;;;;;24.00;41.80;;;;;;8269537;28;20390;-48
2021/07/03 01:25:34;;;;;;;;;;;24.00;41.80;;;;;;8264573;28;19914;-47
2021/07/03 01:29:36;;;;;;;;;;;23.90;41.80;;;;;;8263793;28;19992;-47
2021/07/03 01:33:37;;;;;;;;;;;23.90;41.80;;;;;;8254800;28;20347;-48
2021/07/03 01:37:37;;;;;;;;;;;23.90;41.80;;;;;;8232523;28;19969;-48
2021/07/03 01:41:38;;;;;;;;;;;23.90;41.80;;;;;;8268366;28;19922;-48
2021/07/03 01:45:38;;;;;;;;;;;23.90;41.80;;;;;;8264023;28;20024;-47
2021/07/03 01:49:41;;;;;;;;;;;23.90;41.80;;;;;;8263797;28;19976;-48
2021/07/03 01:53:41;;;;;;;;;;;23.90;41.90;;;;;;8263795;28;19961;-48
2021/07/03 01:57:42;;;;;;;;;;;23.90;41.80;;;;;;8268172;28;19913;-48
2021/07/03 02:01:42;;;;;;;;;;;23.90;41.90;;;;;;8263278;28;19922;-48
2021/07/03 02:05:43;;;;;;;;;;;23.80;41.90;;;;;;8263327;28;20004;-46
2021/07/03 02:09:44;;;;;;;;;;;23.80;42.40;;;;;;8263321;28;19910;-49
2021/07/03 02:13:44;;;;;;;;;;;23.80;41.90;;;;;;8266943;28;19968;-47
2021/07/03 02:17:45;;;;;;;;;;;23.80;41.90;;;;;;8262975;28;19921;-48
2021/07/03 02:21:45;;;;;;;;;;;23.80;41.90;;;;;;8262774;28;19917;-47
2021/07/03 02:25:46;;;;;;;;;;;23.80;41.90;;;;;;8262411;28;19914;-48
2021/07/03 02:29:47;;;;;;;;;;;23.80;41.90;;;;;;8263037;28;19914;-49
2021/07/03 02:33:47;;;;;;;;;;;23.80;41.90;;;;;;8266956;28;19920;-48
2021/07/03 02:37:49;;;;;;;;;;;23.80;41.90;;;;;;8262443;28;19913;-48
2021/07/03 02:41:49;;;;;;;;;;;23.70;41.90;;;;;;8262531;28;19929;-47
2021/07/03 02:45:49;;;;;;;;;;;23.70;41.90;;;;;;8262425;28;19917;-47
2021/07/03 02:49:50;;;;;;;;;;;23.70;41.90;;;;;;8265894;28;19924;-48
2021/07/03 02:53:50;;;;;;;;;;;23.70;41.90;;;;;;8261884;28;19914;-48
2021/07/03 02:57:51;;;;;;;;;;;23.70;41.90;;;;;;8261970;28;19910;-47
2021/07/03 03:01:51;;;;;;;;;;;23.70;41.90;;;;;;8261414;28;19922;-47
2021/07/03 03:05:52;;;;;;;;;;;23.70;41.90;;;;;;8266318;28;19925;-49
2021/07/03 03:09:52;;;;;;;;;;;23.70;41.90;;;;;;8261653;28;19944;-48
2021/07/03 03:13:53;;;;;;;;;;;23.70;42.00;;;;;;8261466;28;19914;-48
2021/07/03 03:17:53;;;;;;;;;;;23.70;41.90;;;;;;8261689;28;19936;-48
2021/07/03 03:21:54;;;;;;;;;;;23.60;41.90;;;;;;8261273;28;20000;-48
2021/07/03 03:25:54;;;;;;;;;;;23.70;42.00;;;;;;8265096;28;19910;-48
2021/07/03 03:29:55;;;;;;;;;;;23.60;41.90;;;;;;8260889;28;19921;-49
2021/07/03 03:33:55;;;;;;;;;;;23.60;41.90;;;;;;8260960;28;19932;-47
2021/07/03 03:37:56;;;;;;;;;;;23.60;42.00;;;;;;8260888;28;20295;-48
2021/07/03 03:41:56;;;;;;;;;;;23.60;42.00;;;;;;8265287;28;20398;-48
2021/07/03 03:45:57;;;;;;;;;;;23.60;42.00;;;;;;8260860;28;19917;-48
2021/07/03 03:49:57;;;;;;;;;;;23.60;42.00;;;;;;8251459;28;20398;-47
2021/07/03 03:53:57;;;;;;;;;;;23.60;42.00;;;;;;8267599;28;19909;-48
2021/07/03 03:57:58;;;;;;;;;;;23.60;42.00;;;;;;8267973;28;19921;-47
2021/07/03 04:01:58;;;;;;;;;;;23.60;42.00;;;;;;8270831;28;19925;-48
2021/07/03 04:05:59;;;;;;;;;;;23.60;42.00;;;;;;8267288;28;19918;-50
2021/07/03 04:09:59;;;;;;;;;;;23.60;42.00;;;;;;8265519;28;19910;-49
2021/07/03 04:14:00;;;;;;;;;;;23.50;42.00;;;;;;8266590;28;19909;-47
2021/07/03 04:18:00;;;;;;;;;;;23.60;42.00;;;;;;8271450;28;20290;-48
2021/07/03 04:22:00;;;;;;;;;;;23.50;42.00;;;;;;8266986;28;20327;-48
2021/07/03 04:26:01;;;;;;;;;;;23.60;42.60;;;;;;8267253;28;19913;-49
2021/07/03 04:30:03;;;;;;;;;;;23.50;42.00;;;;;;8266627;28;19948;-47
2021/07/03 04:34:04;;;;;;;;;;;23.50;42.00;;;;;;8270573;28;20313;-48
2021/07/03 04:38:04;;;;;;;;;;;23.50;42.00;;;;;;8266820;28;19913;-47
2021/07/03 04:42:05;;;;;;;;;;;23.50;42.00;;;;;;8266258;28;19929;-48
2021/07/03 04:46:05;;;;;;;;;;;23.50;42.00;;;;;;8266072;28;20363;-48
2021/07/03 04:50:07;;;;;;;;;;;23.50;42.00;;;;;;8266325;28;19940;-47
2021/07/03 04:54:08;;;;;;;;;;;23.50;42.00;;;;;;8270357;28;19972;-49
2021/07/03 04:58:08;;;;;;;;;;;23.50;42.00;;;;;;8265462;28;19914;-49
2021/07/03 05:02:09;;;;;;;;;;;23.50;42.00;;;;;;8252204;28;20372;-48
2021/07/03 05:06:10;;;;;;;;;;;23.50;42.20;;;;;;8238988;28;19958;-48
2021/07/03 05:10:11;;;;;;;;;;;23.50;42.00;;;;;;8269237;28;19910;-48
2021/07/03 05:14:11;;;;;;;;;;;23.50;42.00;;;;;;8265406;28;20367;-49
2021/07/03 05:18:12;;;;;;;;;;;23.50;42.00;;;;;;8264768;28;19913;-50
2021/07/03 05:22:13;;;;;;;;;;;23.50;42.00;;;;;;8264612;28;19968;-48
2021/07/03 05:26:13;;;;;;;;;;;23.50;41.90;;;;;;8269241;28;20371;-48
2021/07/03 05:30:14;;;;;;;;;;;23.50;41.90;;;;;;8234379;28;20032;-49
2021/07/03 05:34:14;;;;;;;;;;;23.50;41.80;;;;;;8254175;28;19913;-47
2021/07/03 05:38:15;;;;;;;;;;;23.70;41.60;;;;;;8264377;28;19921;-48
2021/07/03 05:42:15;;;;;;;;;;;23.70;41.40;;;;;;8264716;28;21516;-45
2021/07/03 05:46:15;;;;;;;;;;;23.80;41.30;;;;;;8268447;28;19910;-48
2021/07/03 05:50:17;;;;;;;;;;;23.90;41.20;;;;;;8264182;28;19936;-48
2021/07/03 05:54:17;;;;;;;;;;;23.90;41.10;;;;;;8264181;28;19917;-47
2021/07/03 05:58:18;;;;;;;;;;;23.90;41.20;;;;;;8239417;28;19952;-48
2021/07/03 06:02:18;;;;;;;;;;;23.80;41.20;;;;;;8268140;28;19997;-49
2021/07/03 06:06:19;;;;;;;;;;;23.80;41.20;;;;;;8263822;28;19918;-50
2021/07/03 06:10:19;;;;;;;;;;;23.80;41.30;;;;;;8263397;28;19921;-47
2021/07/03 06:14:20;;;;;;;;;;;23.70;41.30;;;;;;8263016;28;19941;-50
2021/07/03 06:18:20;;;;;;;;;;;23.70;41.40;;;;;;8266685;28;19920;-49
2021/07/03 06:22:20;;;;;;;;;;;23.70;41.50;;;;;;8233851;28;20056;-49
2021/07/03 06:26:21;;;;;;;;;;;23.70;41.50;;;;;;8253880;28;19914;-49
2021/07/03 06:30:21;;;;;;;;;;;23.60;41.50;;;;;;8263336;28;19917;-48
2021/07/03 06:34:22;;;;;;;;;;;23.60;41.60;;;;;;8262556;28;19922;-47
2021/07/03 06:38:22;;;;;;;;;;;23.60;41.60;;;;;;8267251;28;19914;-48
2021/07/03 06:42:24;;;;;;;;;;;23.60;41.70;;;;;;8263031;28;20032;-49
2021/07/03 06:46:24;;;;;;;;;;;23.60;41.70;;;;;;8262151;28;19968;-49
2021/07/03 06:50:24;;;;;;;;;;;23.60;41.70;;;;;;8262404;28;19956;-49
2021/07/03 06:54:25;;;;;;;;;;;23.60;41.70;;;;;;8266939;28;19957;-48
2021/07/03 06:58:25;;;;;;;;;;;23.60;41.80;;;;;;8261922;28;19920;-50
2021/07/03 07:02:26;;;;;;;;;;;23.60;41.80;;;;;;8262012;28;19921;-51
2021/07/03 07:06:26;;;;;;;;;;;23.60;41.80;;;;;;8262051;28;19928;-48
2021/07/03 07:10:27;;;;;;;;;;;23.50;41.80;;;;;;8262526;28;19909;-49
2021/07/03 07:14:27;;;;;;;;;;;23.60;41.90;;;;;;8266399;28;19957;-48
2021/07/03 07:18:28;;;;;;;;;;;23.50;41.90;;;;;;8261893;28;20009;-48
2021/07/03 07:22:28;;;;;;;;;;;23.50;41.90;;;;;;8261687;28;19925;-48
2021/07/03 07:26:29;;;;;;;;;;;23.50;41.90;;;;;;8261060;28;19914;-49
2021/07/03 07:30:30;;;;;;;;;;;23.50;41.90;;;;;;8266137;28;20421;-48
2021/07/03 07:34:30;;;;;;;;;;;23.50;42.00;;;;;;8261120;28;19914;-49
2021/07/03 07:38:31;;;;;;;;;;;23.50;42.00;;;;;;8261452;28;19966;-48
2021/07/03 07:42:31;;;;;;;;;;;23.50;41.90;;;;;;8261406;28;19922;-48
2021/07/03 07:46:32;;;;;;;;;;;23.50;42.00;;;;;;8265285;28;20291;-51
2021/07/03 07:50:32;;;;;;;;;;;23.50;42.00;;;;;;8261537;28;20368;-49
2021/07/03 07:54:32;;;;;;;;;;;23.50;42.00;;;;;;8261276;28;19917;-48
2021/07/03 07:58:33;;;;;;;;;;;23.50;42.10;;;;;;8260833;28;19921;-47
2021/07/03 08:02:33;;;;;;;;;;;23.50;42.00;;;;;;8261137;28;19937;-49
2021/07/03 08:06:34;;;;;;;;;;;23.50;42.00;;;;;;8265347;28;19918;-51
2021/07/03 08:10:35;;;;;;;;;;;23.60;42.00;;;;;;8260669;28;20346;-47
2021/07/03 08:14:36;;;;;;;;;;;23.60;42.00;;;;;;8261344;28;19937;-47
2021/07/03 08:18:36;;;;;;;;;;;23.60;42.00;;;;;;8261193;28;19956;-48
2021/07/03 08:22:37;;;;;;;;;;;23.60;42.00;;;;;;8264872;28;19926;-47
2021/07/03 08:26:37;;;;;;;;;;;23.60;42.10;;;;;;8259476;28;19918;-51
2021/07/03 08:30:38;;;;;;;;;;;23.60;42.00;;;;;;8260903;28;19917;-49
2021/07/03 08:34:38;;;;;;;;;;;23.60;42.00;;;;;;8254969;28;19921;-47
2021/07/03 08:38:38;;;;;;;;;;;23.60;42.00;;;;;;8237185;28;19910;-51
2021/07/03 08:42:39;;;;;;;;;;;23.70;42.10;;;;;;8255631;28;19921;-47
2021/07/03 08:46:43;;;;;;;;;;;23.70;42.10;;;;;;8265706;28;19914;-50
2021/07/03 08:50:44;;;;;;;;;;;23.70;42.10;;;;;;8266183;28;19918;-47
2021/07/03 08:54:47;;;;;;;;;;;23.70;42.10;;;;;;8265980;28;19921;-52
2021/07/03 08:58:48;;;;;;;;;;;23.70;42.10;;;;;;8269889;28;19968;-48
2021/07/03 09:02:49;;;;;;;;;;;23.80;42.20;;;;;;8265790;28;20275;-53
2021/07/03 09:06:49;;;;;;;;;;;23.80;42.10;;;;;;8265833;28;19918;-48
2021/07/03 09:11:00;;;;;;;;;;;23.80;42.10;;;;;;8257947;28;19914;-48
2021/07/03 09:15:17;;;;;;;;;;;23.80;42.10;;;;;;8254058;28;19917;-49
2021/07/03 09:19:24;;;;;;;;;;;23.80;42.10;;;;;;8269214;28;19928;-47
2021/07/03 09:23:29;;;;;;;;;;;23.80;42.10;;;;;;8264682;28;20302;-49
2021/07/03 09:27:30;;;;;;;;;;;23.90;42.20;;;;;;8265356;28;19913;-48
2021/07/03 09:31:33;;;;;;;;;;;23.90;42.20;;;;;;8264553;28;19913;-47
2021/07/03 09:35:34;;;;;;;;;;;23.90;42.20;;;;;;8269217;28;19945;-48
2021/07/03 09:39:34;;;;;;;;;;;23.90;42.10;;;;;;8264649;28;20398;-46
2021/07/03 09:43:35;;;;;;;;;;;23.90;42.10;;;;;;8263958;28;19921;-49
2021/07/03 09:47:36;;;;;;;;;;;23.90;42.10;;;;;;8262685;28;20359;-48
2021/07/03 09:51:37;;;;;;;;;;;24.00;42.10;;;;;;8266158;28;20379;-47
2021/07/03 09:55:38;;;;;;;;;;;24.00;42.10;;;;;;8267211;28;19917;-50
2021/07/03 09:59:38;;;;;;;;;;;24.00;42.10;;;;;;8264349;28;20361;-48
2021/07/03 10:03:39;;;;;;;;;;;24.00;42.10;;;;;;8263777;28;19922;-50
2021/07/03 10:07:41;;;;;;;;;;;24.10;42.10;;;;;;8263574;28;19921;-47
2021/07/03 10:11:45;;;;;;;;;;;24.10;42.00;;;;;;8268010;28;19910;-49
2021/07/03 10:15:45;;;;;;;;;;;24.20;42.10;;;;;;8263534;28;19936;-47
2021/07/03 10:19:47;;;;;;;;;;;24.20;42.00;;;;;;8262959;28;19924;-50
2021/07/03 10:23:48;;;;;;;;;;;24.20;41.90;;;;;;8263106;28;20020;-46
2021/07/03 10:27:52;;;;;;;;;;;24.30;41.90;;;;;;8268147;28;19910;-47
2021/07/03 10:31:53;;;;;;;;;;;24.30;41.90;;;;;;8262673;28;20398;-47
2021/07/03 10:35:55;;;;;;;;;;;24.30;41.90;;;;;;8263055;28;19918;-51
2021/07/03 10:39:56;;;;;;;;;;;24.30;41.90;;;;;;8262386;28;20060;-48
2021/07/03 10:44:05;;;;;;;;;;;24.30;41.90;;;;;;8262182;28;19929;-50
2021/07/03 10:48:13;;;;;;;;;;;24.30;41.90;;;;;;8266793;28;19917;-48
2021/07/03 10:52:15;;;;;;;;;;;24.30;41.90;;;;;;8261984;28;20334;-50
2021/07/03 10:56:15;;;;;;;;;;;24.30;41.90;;;;;;8245216;28;19914;-49
2021/07/03 11:00:20;;;;;;;;;;;24.40;41.90;;;;;;8238574;28;19921;-47
2021/07/03 11:04:21;;;;;;;;;;;24.40;41.90;;;;;;8265980;28;19976;-48
2021/07/03 11:08:22;;;;;;;;;;;24.40;41.90;;;;;;8261839;28;20475;-47
2021/07/03 11:12:27;;;;;;;;;;;24.50;41.90;;;;;;8262117;28;19918;-48
2021/07/03 11:16:27;;;;;;;;;;;24.50;42.40;;;;;;8260200;28;19924;-47
2021/07/03 11:20:28;;;;;;;;;;;24.50;41.90;;;;;;8261812;28;19914;-50
2021/07/03 11:24:37;;;;;;;;;;;24.50;41.80;;;;;;8265981;28;19928;-48
2021/07/03 11:28:38;;;;;;;;;;;24.50;41.80;;;;;;8261192;28;19925;-48
2021/07/03 11:32:46;;;;;;;;;;;24.50;41.80;;;;;;8244661;28;19960;-47
2021/07/03 11:36:54;;;;;;;;;;;24.50;41.70;;;;;;8239186;28;19910;-49
2021/07/03 11:40:55;;;;;;;;;;;24.60;41.80;;;;;;8261153;28;20350;-48
2021/07/03 11:44:56;;;;;;;;;;;24.50;41.70;;;;;;8265619;28;19928;-49
2021/07/03 11:48:57;;;;;;;;;;;24.50;41.70;;;;;;8261271;28;19910;-50
2021/07/03 11:52:59;;;;;;;;;;;24.60;41.70;;;;;;8260935;28;19918;-48
2021/07/03 11:56:59;;;;;;;;;;;24.60;41.70;;;;;;8261105;28;19909;-48
2021/07/03 12:01:01;;;;;;;;;;;24.60;41.70;;;;;;8265144;28;20386;-48
2021/07/03 12:05:01;;;;;;;;;;;24.60;41.70;;;;;;8261029;28;20268;-47
2021/07/03 12:09:10;;;;;;;;;;;24.60;41.70;;;;;;8261349;28;19914;-48
2021/07/03 12:13:21;;;;;;;;;;;24.60;41.60;;;;;;8263847;28;19909;-48
2021/07/03 12:17:21;;;;;;;;;;;24.60;41.50;;;;;;8267765;28;19910;-47
2021/07/03 12:21:25;;;;;;;;;;;24.60;41.70;;;;;;8271564;28;19944;-48
2021/07/03 12:25:49;;;;;;;;;;;24.70;41.70;;;;;;8246205;28;19928;-49
2021/07/03 12:29:49;;;;;;;;;;;24.70;41.70;;;;;;8266692;28;19914;-49
2021/07/03 12:33:59;;;;;;;;;;;24.70;41.70;;;;;;8265352;28;19916;-48
2021/07/03 12:38:00;;;;;;;;;;;24.80;41.70;;;;;;8269409;28;19921;-50
2021/07/03 12:42:04;;;;;;;;;;;24.80;41.60;;;;;;8267871;28;20280;-47
2021/07/03 12:46:06;;;;;;;;;;;24.80;41.60;;;;;;8265896;28;19910;-47
2021/07/03 12:50:07;;;;;;;;;;;24.80;41.60;;;;;;8265861;28;19949;-50
2021/07/03 12:54:08;;;;;;;;;;;24.80;41.60;;;;;;8266006;28;19963;-47
2021/07/03 12:58:19;;;;;;;;;;;24.80;41.60;;;;;;8284903;28;20291;-48
2021/07/03 13:02:19;;;;;;;;;;;24.80;41.60;;;;;;8265686;28;19926;-47
2021/07/03 13:06:22;;;;;;;;;;;24.80;41.60;;;;;;8266065;28;20291;-48
2021/07/03 13:10:23;;;;;;;;;;;24.80;41.60;;;;;;8265279;28;19918;-47
2021/07/03 13:14:23;;;;;;;;;;;24.80;41.60;;;;;;8269663;28;19956;-47
2021/07/03 13:18:24;;;;;;;;;;;24.80;41.70;;;;;;8265690;28;19937;-47
2021/07/03 13:22:24;;;;;;;;;;;24.80;41.60;;;;;;8263901;28;20372;-47
2021/07/03 13:26:24;;;;;;;;;;;24.80;41.70;;;;;;8264398;28;20004;-46
2021/07/03 13:30:25;;;;;;;;;;;24.80;41.70;;;;;;8264922;28;20487;-47
2021/07/03 13:34:25;;;;;;;;;;;24.80;41.70;;;;;;8268813;28;19909;-47
2021/07/03 13:38:26;;;;;;;;;;;24.80;41.70;;;;;;8265310;28;19914;-51
2021/07/03 13:42:26;;;;;;;;;;;24.80;41.70;;;;;;8264561;28;20020;-52
2021/07/03 13:46:27;;;;;;;;;;;24.80;41.70;;;;;;8263980;28;19913;-51
2021/07/03 13:50:27;;;;;;;;;;;24.80;41.70;;;;;;8268674;28;19983;-48
2021/07/03 13:54:29;;;;;;;;;;;24.80;41.80;;;;;;8264172;28;20337;-48
2021/07/03 13:58:30;;;;;;;;;;;24.80;41.90;;;;;;8263828;28;19914;-48
2021/07/03 14:02:30;;;;;;;;;;;24.80;41.80;;;;;;8264055;28;19929;-47
2021/07/03 14:06:31;;;;;;;;;;;24.80;41.80;;;;;;8264807;28;20240;-47
2021/07/03 14:10:32;;;;;;;;;;;24.80;41.80;;;;;;8235429;28;19914;-51
2021/07/03 14:14:33;;;;;;;;;;;24.80;41.80;;;;;;8255096;28;19937;-46
2021/07/03 14:18:34;;;;;;;;;;;24.80;41.90;;;;;;8264050;28;20064;-47
2021/07/03 14:22:35;;;;;;;;;;;24.80;41.90;;;;;;8263111;28;19926;-48
2021/07/03 14:26:35;;;;;;;;;;;24.80;42.00;;;;;;8267903;28;19910;-48
2021/07/03 14:30:37;;;;;;;;;;;24.70;42.00;;;;;;8263347;28;20322;-48
2021/07/03 14:34:37;;;;;;;;;;;24.80;42.10;;;;;;8262593;28;19914;-49
2021/07/03 14:38:38;;;;;;;;;;;24.80;42.10;;;;;;8263141;28;19921;-48
2021/07/03 14:42:38;;;;;;;;;;;24.80;42.10;;;;;;8267318;28;19922;-47
2021/07/03 14:46:41;;;;;;;;;;;24.80;42.70;;;;;;8262250;28;19960;-48
2021/07/03 14:50:41;;;;;;;;;;;24.80;43.10;;;;;;8262715;28;19917;-47
2021/07/03 14:54:43;;;;;;;;;;;24.70;43.50;;;;;;8262514;28;19916;-48
2021/07/03 14:58:43;;;;;;;;;;;24.70;43.60;;;;;;8261464;28;19964;-47
2021/07/03 15:02:43;;;;;;;;;;;24.70;44.30;;;;;;8266328;28;19921;-47
2021/07/03 15:06:44;;;;;;;;;;;24.70;43.60;;;;;;8262149;28;19920;-47
2021/07/03 15:10:44;;;;;;;;;;;24.70;43.70;;;;;;8261615;28;19914;-49
2021/07/03 15:14:45;;;;;;;;;;;24.70;44.00;;;;;;8261883;28;19932;-47
2021/07/03 15:18:45;;;;;;;;;;;24.70;44.10;;;;;;8266264;28;19917;-48
2021/07/03 15:22:46;;;;;;;;;;;24.70;44.50;;;;;;8261098;28;19928;-47
2021/07/03 15:26:47;;;;;;;;;;;24.70;44.10;;;;;;8261815;28;20394;-47
2021/07/03 15:30:47;;;;;;;;;;;24.70;44.20;;;;;;8261666;28;19910;-47
2021/07/03 15:34:48;;;;;;;;;;;24.70;44.20;;;;;;8265587;28;20371;-48
2021/07/03 15:38:48;;;;;;;;;;;24.60;44.40;;;;;;8261613;28;19917;-48
2021/07/03 15:42:49;;;;;;;;;;;24.60;44.00;;;;;;8261499;28;19929;-48
2021/07/03 15:46:49;;;;;;;;;;;24.60;43.80;;;;;;8262638;28;19914;-47
2021/07/03 15:50:50;;;;;;;;;;;24.60;43.70;;;;;;8267940;28;20604;-49
2021/07/03 15:54:50;;;;;;;;;;;24.60;43.90;;;;;;8272240;28;20264;-46
2021/07/03 15:58:51;;;;;;;;;;;24.60;43.90;;;;;;8267293;28;19936;-48
2021/07/03 16:02:51;;;;;;;;;;;24.60;43.90;;;;;;8267806;28;19922;-48
2021/07/03 16:06:52;;;;;;;;;;;24.60;43.90;;;;;;8267760;28;19952;-47
2021/07/03 16:10:52;;;;;;;;;;;24.60;43.90;;;;;;8271372;28;20025;-46
2021/07/03 16:14:52;;;;;;;;;;;24.60;44.00;;;;;;8267275;28;19964;-47
2021/07/03 16:18:53;;;;;;;;;;;24.60;44.20;;;;;;8267088;28;19913;-47
2021/07/03 16:22:53;;;;;;;;;;;24.60;44.10;;;;;;8266658;28;19926;-47
2021/07/03 16:26:54;;;;;;;;;;;24.60;43.90;;;;;;8268042;28;20298;-48
2021/07/03 16:30:54;;;;;;;;;;;24.60;44.20;;;;;;8270151;28;19917;-47
2021/07/03 16:34:55;;;;;;;;;;;24.60;43.70;;;;;;8266341;28;19917;-48
2021/07/03 16:38:55;;;;;;;;;;;24.60;43.70;;;;;;8266811;28;19936;-48
2021/07/03 16:42:56;;;;;;;;;;;24.60;43.70;;;;;;8266379;28;19928;-46
2021/07/03 16:46:56;;;;;;;;;;;24.60;43.80;;;;;;8270447;28;20387;-46
2021/07/03 16:50:57;;;;;;;;;;;24.60;43.90;;;;;;8266294;28;19914;-47
2021/07/03 16:54:57;;;;;;;;;;;24.60;43.40;;;;;;8250133;28;19914;-47
2021/07/03 16:58:58;;;;;;;;;;;24.60;43.30;;;;;;8240217;28;19921;-47
2021/07/03 17:02:58;;;;;;;;;;;24.60;43.30;;;;;;8270038;28;19929;-47
2021/07/03 17:06:59;;;;;;;;;;;24.60;43.40;;;;;;8265327;28;19968;-47
2021/07/03 17:11:00;;;;;;;;;;;24.60;43.30;;;;;;8265299;28;19984;-48
2021/07/03 17:15:00;;;;;;;;;;;24.60;43.30;;;;;;8265726;28;19914;-47
2021/07/03 17:19:00;;;;;;;;;;;24.60;43.30;;;;;;8264755;28;19916;-47
2021/07/03 17:23:01;;;;;;;;;;;24.60;43.30;;;;;;8269768;28;19922;-47
2021/07/03 17:27:03;;;;;;;;;;;24.60;43.40;;;;;;8265178;28;19921;-47
2021/07/03 17:31:03;;;;;;;;;;;24.60;43.30;;;;;;8264738;28;19975;-49
2021/07/03 17:35:05;;;;;;;;;;;24.60;43.40;;;;;;8264961;28;19913;-48
2021/07/03 17:39:05;;;;;;;;;;;24.60;43.40;;;;;;8269266;28;20382;-52
2021/07/03 17:43:06;;;;;;;;;;;24.60;43.40;;;;;;8264097;28;19922;-50
2021/07/03 17:47:06;;;;;;;;;;;24.60;43.50;;;;;;8264773;28;19913;-49
2021/07/03 17:51:07;;;;;;;;;;;24.60;43.50;;;;;;8264280;28;19920;-48
2021/07/03 17:55:07;;;;;;;;;;;24.50;43.30;;;;;;8268064;28;20399;-48
2021/07/03 17:59:11;;;;;;;;;;;24.50;43.30;;;;;;8264060;28;20290;-47
2021/07/03 18:03:11;;;;;;;;;;;24.50;43.30;;;;;;8263716;28;19922;-46
2021/07/03 18:07:11;;;;;;;;;;;24.50;43.30;;;;;;8263387;28;20403;-47
2021/07/03 18:11:12;;;;;;;;;;;24.50;43.40;;;;;;8263397;28;20290;-48
2021/07/03 18:15:12;;;;;;;;;;;24.50;43.30;;;;;;8267963;28;19964;-47
2021/07/03 18:19:13;;;;;;;;;;;24.50;43.30;;;;;;8262951;28;19914;-48
2021/07/03 18:23:14;;;;;;;;;;;24.50;43.40;;;;;;8263215;28;19925;-47
2021/07/03 18:27:14;;;;;;;;;;;24.50;43.30;;;;;;8263870;28;19941;-47
2021/07/03 18:31:15;;;;;;;;;;;24.50;43.30;;;;;;8267146;28;19964;-48
2021/07/03 18:35:16;;;;;;;;;;;24.50;43.30;;;;;;8263344;28;19920;-47
2021/07/03 18:39:17;;;;;;;;;;;24.50;43.30;;;;;;8262807;28;20024;-49
2021/07/03 18:43:17;;;;;;;;;;;24.50;43.30;;;;;;8262297;28;20298;-47
2021/07/03 18:47:17;;;;;;;;;;;24.50;43.40;;;;;;8264668;28;19914;-47
2021/07/03 18:51:18;;;;;;;;;;;24.50;43.30;;;;;;8264810;28;20335;-48
2021/07/03 18:55:19;;;;;;;;;;;24.50;43.30;;;;;;8261792;28;20375;-47
2021/07/03 18:59:19;;;;;;;;;;;24.50;43.30;;;;;;8262675;28;19921;-48
2021/07/03 19:03:20;;;;;;;;;;;24.50;43.30;;;;;;8262185;28;20012;-48
2021/07/03 19:07:20;;;;;;;;;;;24.50;43.30;;;;;;8266039;28;19910;-47
2021/07/03 19:11:20;;;;;;;;;;;24.40;43.30;;;;;;8262223;28;20385;-48
2021/07/03 19:15:21;;;;;;;;;;;24.50;43.40;;;;;;8261911;28;20367;-47
2021/07/03 19:19:22;;;;;;;;;;;24.50;43.50;;;;;;8261462;28;20371;-50
2021/07/03 19:23:22;;;;;;;;;;;24.50;43.30;;;;;;8266155;28;20419;-48
2021/07/03 19:27:23;;;;;;;;;;;24.50;43.30;;;;;;8261958;28;20004;-48
2021/07/03 19:31:23;;;;;;;;;;;24.50;43.40;;;;;;8261083;28;19918;-48
2021/07/03 19:35:24;;;;;;;;;;;24.50;43.40;;;;;;8261382;28;19936;-48
2021/07/03 19:39:24;;;;;;;;;;;24.40;43.40;;;;;;8261457;28;20286;-49
2021/07/03 19:43:25;;;;;;;;;;;24.40;43.40;;;;;;8265136;28;20303;-47
2021/07/03 19:47:25;;;;;;;;;;;24.40;43.40;;;;;;8261392;28;20326;-47
2021/07/03 19:51:26;;;;;;;;;;;24.40;43.40;;;;;;8261855;28;19913;-47
2021/07/03 19:55:26;;;;;;;;;;;24.40;43.30;;;;;;8260750;28;19914;-48
2021/07/03 19:59:27;;;;;;;;;;;24.40;43.50;;;;;;8265614;28;19917;-49
2021/07/03 20:03:27;;;;;;;;;;;24.40;43.40;;;;;;8261288;28;19921;-47
2021/07/03 20:07:28;;;;;;;;;;;24.40;43.40;;;;;;8260142;28;20001;-50
2021/07/03 20:11:29;;;;;;;;;;;24.40;43.40;;;;;;8261063;28;19945;-49
2021/07/03 20:15:29;;;;;;;;;;;24.40;43.50;;;;;;8265691;28;20374;-48
2021/07/03 20:19:29;;;;;;;;;;;24.30;43.40;;;;;;8260519;28;19913;-49
2021/07/03 20:23:30;;;;;;;;;;;24.30;43.40;;;;;;8260792;28;19922;-48
2021/07/03 20:27:30;;;;;;;;;;;24.30;43.50;;;;;;8260760;28;19935;-48
2021/07/03 20:31:31;;;;;;;;;;;24.40;43.50;;;;;;8260361;28;19949;-49
2021/07/03 20:35:31;;;;;;;;;;;24.30;43.50;;;;;;8270586;28;19914;-48
2021/07/03 20:39:38;;;;;;;;;;;24.30;43.40;;;;;;8266796;28;19920;-48
2021/07/03 20:43:38;;;;;;;;;;;24.30;43.40;;;;;;8266201;28;19929;-49
2021/07/03 20:47:40;;;;;;;;;;;24.30;43.50;;;;;;8266649;28;19920;-49
2021/07/03 20:51:40;;;;;;;;;;;24.30;43.50;;;;;;8270632;28;19956;-49
2021/07/03 20:55:41;;;;;;;;;;;24.30;43.50;;;;;;8265473;28;19913;-49
2021/07/03 20:59:42;;;;;;;;;;;24.30;43.50;;;;;;8265960;28;20318;-49
2021/07/03 21:03:43;;;;;;;;;;;24.30;43.60;;;;;;8265466;28;19977;-48
2021/07/03 21:07:44;;;;;;;;;;;24.30;43.60;;;;;;8267426;28;19917;-52
2021/07/03 21:11:44;;;;;;;;;;;24.30;43.50;;;;;;8268689;28;19909;-49
2021/07/03 21:15:45;;;;;;;;;;;24.30;43.60;;;;;;8265835;28;20008;-48
2021/07/03 21:19:45;;;;;;;;;;;24.30;43.60;;;;;;8265157;28;19914;-48
2021/07/03 21:23:46;;;;;;;;;;;24.30;43.70;;;;;;8265074;28;19944;-50
2021/07/03 21:27:47;;;;;;;;;;;24.30;43.70;;;;;;8269504;28;19910;-49
2021/07/03 21:31:48;;;;;;;;;;;24.30;43.70;;;;;;8264497;28;20001;-49
2021/07/03 21:35:48;;;;;;;;;;;24.20;43.70;;;;;;8264884;28;20402;-50
2021/07/03 21:39:49;;;;;;;;;;;24.20;43.60;;;;;;8265025;28;20346;-49
2021/07/03 21:43:49;;;;;;;;;;;24.20;43.70;;;;;;8267391;28;20290;-49
2021/07/03 21:47:50;;;;;;;;;;;24.30;43.70;;;;;;8264639;28;19914;-49
2021/07/03 21:51:50;;;;;;;;;;;24.20;43.70;;;;;;8264711;28;20248;-48
2021/07/03 21:55:50;;;;;;;;;;;24.20;43.70;;;;;;8263900;28;19968;-48
2021/07/03 21:59:51;;;;;;;;;;;24.20;43.70;;;;;;8264371;28;19920;-48
2021/07/03 22:03:51;;;;;;;;;;;24.20;43.70;;;;;;8267577;28;19921;-49
2021/07/03 22:07:52;;;;;;;;;;;24.20;43.70;;;;;;8263572;28;20381;-48
2021/07/03 22:11:56;;;;;;;;;;;24.20;43.70;;;;;;8264130;28;20275;-49
2021/07/03 22:15:58;;;;;;;;;;;24.10;43.70;;;;;;8263743;28;19913;-49
2021/07/03 22:19:58;;;;;;;;;;;24.10;43.80;;;;;;8268199;28;19913;-49
2021/07/03 22:23:59;;;;;;;;;;;24.20;43.80;;;;;;8263298;28;19922;-49
2021/07/03 22:28:00;;;;;;;;;;;24.10;43.80;;;;;;8262797;28;19960;-48
2021/07/03 22:32:00;;;;;;;;;;;24.10;43.80;;;;;;8263384;28;19914;-48
2021/07/03 22:36:01;;;;;;;;;;;24.20;43.90;;;;;;8267540;28;19910;-48
2021/07/03 22:40:05;;;;;;;;;;;24.10;43.80;;;;;;8262878;28;19960;-49
2021/07/03 22:44:06;;;;;;;;;;;24.10;43.80;;;;;;8262575;28;19928;-50
2021/07/03 22:48:06;;;;;;;;;;;24.10;43.90;;;;;;8262748;28;19918;-48
2021/07/03 22:52:07;;;;;;;;;;;24.10;43.90;;;;;;8262460;28;19918;-48
2021/07/03 22:56:07;;;;;;;;;;;24.10;43.90;;;;;;8266480;28;19916;-49
2021/07/03 23:00:13;;;;;;;;;;;24.10;43.90;;;;;;8262332;28;19996;-49
2021/07/03 23:04:13;;;;;;;;;;;24.10;43.90;;;;;;8261745;28;20264;-48
2021/07/03 23:08:14;;;;;;;;;;;24.10;43.90;;;;;;8262252;28;20004;-50
2021/07/03 23:12:14;;;;;;;;;;;24.10;43.90;;;;;;8266973;28;19909;-48
2021/07/03 23:16:15;;;;;;;;;;;24.10;43.90;;;;;;8261683;28;19921;-49
2021/07/03 23:20:17;;;;;;;;;;;24.10;44.00;;;;;;8262331;28;19914;-49